Touat Cheikh Sidi Mohamed Belkebir Airport

DAUA · Adrar, Algerije

METAR historie DAUA · Touat Cheikh Sidi Mohamed Belkebir Airport

Hieronder zie je METAR's van de afgelopen dagen. Kies een jaar om door oudere METAR's te bladeren, vanaf het jaar 2007.

16 juli 2024

Tijd Code Weer Temp. Zicht Plafond Wind METAR/SPECI
15:00
I
46 °C 1,5 km - 160° 160° 14 kt METAR DAUA 161400Z 16014KT 1500 SA NSC 46/06 Q1011
14:00
L
45 °C 800 m - 150° 150° 11 kt METAR DAUA 161300Z 15011KT 0800 SA NSC 45/06 Q1011
13:00
L
45 °C 800 m - 200° 200° 6 kt METAR DAUA 161200Z 20006KT 0800 SA NSC 45/08 Q1012
12:00
L
44 °C 800 m - 170° 170° 7 kt METAR DAUA 161100Z 17007KT 0800 SA NSC 44/09 Q1012
11:00
L
42 °C 800 m - 170° 170° 13 kt METAR DAUA 161000Z 17013KT 0800 SA NSC 42/11 Q1012
10:00
L
40 °C 800 m - 160° 160° 14 kt METAR DAUA 160900Z 16014KT 0800 SA NSC 40/10 Q1012
09:00
L
38 °C 800 m - 160° 160° 13 kt METAR DAUA 160800Z 16013KT 0800 SA NSC 38/09 Q1012
08:00
L
36 °C 800 m - 140° 140° 12 kt METAR DAUA 160700Z 14012KT 0800 SA NSC 36/09 Q1012
07:00
L
33 °C 1 km - 140° 140° 7 kt METAR DAUA 160600Z 14007KT 1000 SA NSC 33/08 Q1011
06:10
L
32 °C 1 km - 150° 150° 5 kt METAR DAUA 160510Z 15005KT 1000 SA NSC 32/07 Q1010
06:00
I
33 °C 3 km - 180° 180° 6 kt METAR DAUA 160500Z 18006KT 3000 SA NSC 33/07 Q1010
05:00
M
34 °C 6 km - 170° 170° 8 kt METAR DAUA 160400Z 17008KT 6000 NSC 34/07 Q1009
04:00
V
33 °C 10 km+ - 150° 150° 10 kt METAR DAUA 160300Z 15010KT CAVOK 33/02 Q1009
03:00
V
35 °C 10 km+ - 080° 080° 7 kt METAR DAUA 160200Z 08007KT CAVOK 35/// Q1009
02:00
V
35 °C 10 km+ - 070° 070° 6 kt METAR DAUA 160100Z 07006KT CAVOK 35/// Q1009
01:00
V
35 °C 10 km+ - 080° 080° 4 kt METAR DAUA 160000Z 08004KT CAVOK 35/// Q1009
00:00
V
36 °C 10 km+ - 140° 140° 4 kt METAR DAUA 152300Z 14004KT CAVOK 36/// Q1010

15 juli 2024

Tijd Code Weer Temp. Zicht Plafond Wind METAR/SPECI
23:00
V
37 °C 10 km+ - 130° 130° 6 kt METAR DAUA 152200Z 13006KT CAVOK 37/// Q1010
22:00
V
38 °C 10 km+ - 130° 130° 6 kt METAR DAUA 152100Z 13006KT CAVOK 38/// Q1009
21:00
V
42 °C 10 km+ - 110° 110° 6 kt METAR DAUA 152000Z 11006KT CAVOK 42/// Q1009
20:00
V
44 °C 10 km+ - 120° 120° 4 kt METAR DAUA 151900Z 12004KT CAVOK 44/// Q1008
19:00
V
46 °C 10 km+ - 120° 120° 9 kt METAR DAUA 151800Z 12009KT CAVOK 46/// Q1007
18:00
V
47 °C 10 km+ - 120° 120° 13 kt METAR DAUA 151700Z 12013KT CAVOK 47/// Q1007
17:00
V
47 °C 8 km - 140° 140° 10 kt METAR DAUA 151600Z 14010KT 8000 NSC 47/// Q1008
16:00
V
47 °C 8 km - 120° 120° 4 kt METAR DAUA 151500Z 12004KT 8000 NSC 47/// Q1008
15:00
V
48 °C 8 km - 120° 120° 11 kt METAR DAUA 151400Z 12011KT 8000 NSC 48/// Q1009
14:00
V
47 °C 8 km - 100° 100° 8 kt METAR DAUA 151300Z 10008KT 8000 NSC 47/// Q1010
13:00
V
46 °C 8 km - 170° 170° 11 kt METAR DAUA 151200Z 17011KT 8000 NSC 46/// Q1010
12:00
V
46 °C 10 km+ - 080° 080° 12 kt METAR DAUA 151100Z 08012KT CAVOK 46/// Q1011
11:00
V
44 °C 10 km+ - 080° 080° 12 kt METAR DAUA 151000Z 08012KT CAVOK 44/// Q1011
10:00
V
43 °C 10 km+ - 090° 090° 16 kt METAR DAUA 150900Z 09016KT CAVOK 43/// Q1011
09:00
V
39 °C 10 km+ - 100° 100° 15 kt METAR DAUA 150800Z 10015KT CAVOK 39/// Q1011
08:00
V
35 °C 9 km - 080° 080° 12 kt METAR DAUA 150700Z 08012KT 9000 NSC 35/// Q1011
07:00
V
32 °C 8 km - 080° 080° 11 kt METAR DAUA 150600Z 08011KT 8000 NSC 32/M05 Q1011
06:00
V
32 °C 8 km - 100° 100° 10 kt METAR DAUA 150500Z 10010KT 8000 NSC 32/// Q1010
05:00
V
32 °C 8 km - 090° 090° 11 kt METAR DAUA 150400Z 09011KT 8000 NSC 32/// Q1010
04:00
M
32 °C 7 km - 090° 090° 10 kt METAR DAUA 150300Z 09010KT 7000 NSC 32/// Q1010
03:00
M
33 °C 7 km - 070° 070° 13 kt METAR DAUA 150200Z 07013KT 7000 NSC 33/// Q1009
02:00
M
34 °C 7 km - 060° 060° 12 kt METAR DAUA 150100Z 06012KT 7000 NSC 34/// Q1009
01:00
M
35 °C 7 km - 080° 080° 11 kt METAR DAUA 150000Z 08011KT 7000 NSC 35/// Q1010
00:00
M
37 °C 7 km - 080° 080° 13 kt METAR DAUA 142300Z 08013KT 7000 NSC 37/// Q1010

14 juli 2024

Tijd Code Weer Temp. Zicht Plafond Wind METAR/SPECI
23:00
M
38 °C 7 km - 090° 090° 15 kt METAR DAUA 142200Z 09015KT 7000 NSC 38/// Q1010
22:00
M
40 °C 7 km - 080° 080° 12 kt METAR DAUA 142100Z 08012KT 7000 NSC 40/// Q1009
21:00
M
42 °C 7 km - 090° 090° 14 kt METAR DAUA 142000Z 09014KT 7000 NSC 42/// Q1009
20:00
M
44 °C 7 km - 090° 090° 16 kt METAR DAUA 141900Z 09016KT 7000 NSC 44/// Q1008
19:00
M
46 °C 6 km - 080° 080° 20 kt METAR DAUA 141800Z 08020KT 6000 DRSA NSC 46/// Q1008
18:00
M
47 °C 6 km - 080° 080° 21 kt METAR DAUA 141700Z 08021KT 6000 DRSA NSC 47/// Q1007
17:00
M
48 °C 6 km - 070° 070° 20 kt METAR DAUA 141600Z 07020KT 6000 DRSA NSC 48/// Q1008
16:00
M
48 °C 6 km - 090° 090° 24 kt METAR DAUA 141500Z 09024KT 6000 DRSA NSC 48/// Q1008
15:00
M
47 °C 5 km - 100° 100° 20 kt METAR DAUA 141400Z 10020KT 5000 DRSA NSC 47/// Q1009
14:00
M
48 °C 5 km - 080° 080° 22 kt METAR DAUA 141300Z 08022KT 5000 DRSA NSC 48/// Q1009
13:00
I
46 °C 3 km - 100° 100° 24 kt METAR DAUA 141200Z 10024KT 3000 DRSA NSC 46/// Q1010
12:00
I
46 °C 3 km - 090° 090° 27 kt METAR DAUA 141100Z 09027KT 3000 DRSA NSC 46/// Q1010
11:00
I
44 °C 4 km - 100° 100° 23 kt METAR DAUA 141000Z 10023KT 4000 DRSA NSC 44/// Q1010
10:00
M
42 °C 5 km - 090° 090° 22 kt METAR DAUA 140900Z 09022KT 5000 DRSA NSC 42/// Q1010
09:00
V
40 °C 8 km - 100° 100° 20 kt METAR DAUA 140800Z 10020KT 8000 DRSA NSC 40/// Q1010
08:00
V
36 °C 10 km+ - 110° 110° 13 kt METAR DAUA 140700Z 11013KT CAVOK 36/// Q1010
07:00
V
31 °C 10 km+ - 120° 120° 14 kt METAR DAUA 140600Z 12014KT CAVOK 31/M03 Q1009
Wijziging doorgeven